Aviation Digital Data Service (ADDS)

Output produced by METARs form (1651 UTC 16 June 2019)
found at http://www.aviationweather.gov/metar/data/
 
METAR text: KBJC 161650Z 35007KT 15SM FEW090 SCT130 BKN220 21/09 A3008 RMK TCU DSNT SW
Conditions at: KBJC (BROOMFIELD/JEFFC, CO, US) observed 1650 UTC 16 June 2019
Temperature: 21.0°C (70°F)
Dewpoint: 9.0°C (48°F) [RH = 46%]
Pressure (altimeter): 30.08 inches Hg (1018.7 mb)
Winds: from the N (350 degrees) at 8 MPH (7 knots; 3.6 m/s)
Visibility: 15 miles (24 km)
Ceiling: 22000 feet AGL
Clouds: few clouds at 9000 feet AGL
scattered clouds at 13000 feet AGL
broken clouds at 22000 feet AGL
Weather: no significant weather observed at this time

METAR text: KBJC 161550Z 36007KT 10SM FEW080 SCT150 19/09 A3008
Conditions at: KBJC (BROOMFIELD/JEFFC, CO, US) observed 1550 UTC 16 June 2019
Temperature: 19.0°C (66°F)
Dewpoint: 9.0°C (48°F) [RH = 52%]
Pressure (altimeter): 30.08 inches Hg (1018.7 mb)
Winds: from the N (360 degrees) at 8 MPH (7 knots; 3.6 m/s)
Visibility: 10 or more miles (16+ km)
Ceiling: at least 12,000 feet AGL
Clouds: few clouds at 8000 feet AGL
scattered clouds at 15000 feet AGL
Weather: no significant weather observed at this time

METAR text: KBJC 161446Z 03006KT 10SM FEW100 SCT150 18/09 A3008
Conditions at: KBJC (BROOMFIELD/JEFFC, CO, US) observed 1446 UTC 16 June 2019
Temperature: 18.0°C (64°F)
Dewpoint: 9.0°C (48°F) [RH = 56%]
Pressure (altimeter): 30.08 inches Hg (1018.7 mb)
Winds: from the NNE (30 degrees) at 7 MPH (6 knots; 3.1 m/s)
Visibility: 10 or more miles (16+ km)
Ceiling: at least 12,000 feet AGL
Clouds: few clouds at 10000 feet AGL
scattered clouds at 15000 feet AGL
Weather: no significant weather observed at this time

METAR text: KBJC 161345Z 34011KT 10SM FEW100 SCT150 14/09 A3009
Conditions at: KBJC (BROOMFIELD/JEFFC, CO, US) observed 1345 UTC 16 June 2019
Temperature: 14.0°C (57°F)
Dewpoint: 9.0°C (48°F) [RH = 72%]
Pressure (altimeter): 30.09 inches Hg (1019.0 mb)
Winds: from the NNW (340 degrees) at 13 MPH (11 knots; 5.7 m/s)
Visibility: 10 or more miles (16+ km)
Ceiling: at least 12,000 feet AGL
Clouds: few clouds at 10000 feet AGL
scattered clouds at 15000 feet AGL
Weather: no significant weather observed at this time

METAR text: KBJC 161245Z 29007KT 30SM FEW080 SCT150 13/07 A3008
Conditions at: KBJC (BROOMFIELD/JEFFC, CO, US) observed 1245 UTC 16 June 2019
Temperature: 13.0°C (55°F)
Dewpoint: 7.0°C (45°F) [RH = 67%]
Pressure (altimeter): 30.08 inches Hg (1018.7 mb)
Winds: from the WNW (290 degrees) at 8 MPH (7 knots; 3.6 m/s)
Visibility: 30 miles (48 km)
Ceiling: at least 12,000 feet AGL
Clouds: few clouds at 8000 feet AGL
scattered clouds at 15000 feet AGL
Weather: no significant weather observed at this time

METAR text: KBJC 161154Z AUTO 00000KT 10SM CLR 14/05 A3007 RMK AO2
Conditions at: KBJC (BROOMFIELD/JEFFC, CO, US) observed 1154 UTC 16 June 2019
Temperature: 14.0°C (57°F)
Dewpoint: 5.0°C (41°F) [RH = 55%]
Pressure (altimeter): 30.07 inches Hg (1018.4 mb)
Winds: calm
Visibility: 10 or more miles (16+ km)
Ceiling: at least 12,000 feet AGL
Clouds: sky clear below 12,000 feet AGL
Weather: automated observation with no human augmentation;
there may or may not be significant weather present at this time

METAR text: KBJC 161148Z 00000KT 10SM FEW080 SCT200 14/05 A3007
Conditions at: KBJC (BROOMFIELD/JEFFC, CO, US) observed 1148 UTC 16 June 2019
Temperature: 14.0°C (57°F)
Dewpoint: 5.0°C (41°F) [RH = 55%]
Pressure (altimeter): 30.07 inches Hg (1018.4 mb)
Winds: calm
Visibility: 10 or more miles (16+ km)
Ceiling: at least 12,000 feet AGL
Clouds: few clouds at 8000 feet AGL
scattered clouds at 20000 feet AGL
Weather: no significant weather observed at this time

METAR text: KBJC 161136Z AUTO 00000KT 10SM CLR 13/05 A3007 RMK AO2
Conditions at: KBJC (BROOMFIELD/JEFFC, CO, US) observed 1136 UTC 16 June 2019
Temperature: 13.0°C (55°F)
Dewpoint: 5.0°C (41°F) [RH = 58%]
Pressure (altimeter): 30.07 inches Hg (1018.4 mb)
Winds: calm
Visibility: 10 or more miles (16+ km)
Ceiling: at least 12,000 feet AGL
Clouds: sky clear below 12,000 feet AGL
Weather: automated observation with no human augmentation;
there may or may not be significant weather present at this time

METAR text: KBJC 161130Z AUTO 00000KT 10SM CLR 13/05 A3007 RMK AO2
Conditions at: KBJC (BROOMFIELD/JEFFC, CO, US) observed 1130 UTC 16 June 2019
Temperature: 13.0°C (55°F)
Dewpoint: 5.0°C (41°F) [RH = 58%]
Pressure (altimeter): 30.07 inches Hg (1018.4 mb)
Winds: calm
Visibility: 10 or more miles (16+ km)
Ceiling: at least 12,000 feet AGL
Clouds: sky clear below 12,000 feet AGL
Weather: automated observation with no human augmentation;
there may or may not be significant weather present at this time

METAR text: KBJC 161112Z AUTO 00000KT 10SM CLR 13/05 A3007 RMK AO2
Conditions at: KBJC (BROOMFIELD/JEFFC, CO, US) observed 1112 UTC 16 June 2019
Temperature: 13.0°C (55°F)
Dewpoint: 5.0°C (41°F) [RH = 58%]
Pressure (altimeter): 30.07 inches Hg (1018.4 mb)
Winds: calm
Visibility: 10 or more miles (16+ km)
Ceiling: at least 12,000 feet AGL
Clouds: sky clear below 12,000 feet AGL
Weather: automated observation with no human augmentation;
there may or may not be significant weather present at this time

METAR text: KBJC 161054Z AUTO 00000KT 10SM CLR 12/05 A3007 RMK AO2
Conditions at: KBJC (BROOMFIELD/JEFFC, CO, US) observed 1054 UTC 16 June 2019
Temperature: 12.0°C (54°F)
Dewpoint: 5.0°C (41°F) [RH = 62%]
Pressure (altimeter): 30.07 inches Hg (1018.4 mb)
Winds: calm
Visibility: 10 or more miles (16+ km)
Ceiling: at least 12,000 feet AGL
Clouds: sky clear below 12,000 feet AGL
Weather: automated observation with no human augmentation;
there may or may not be significant weather present at this time

METAR text: KBJC 161036Z AUTO 24003KT 10SM CLR 11/05 A3007 RMK AO2
Conditions at: KBJC (BROOMFIELD/JEFFC, CO, US) observed 1036 UTC 16 June 2019
Temperature: 11.0°C (52°F)
Dewpoint: 5.0°C (41°F) [RH = 66%]
Pressure (altimeter): 30.07 inches Hg (1018.4 mb)
Winds: from the WSW (240 degrees) at 3 MPH (3 knots; 1.5 m/s)
Visibility: 10 or more miles (16+ km)
Ceiling: at least 12,000 feet AGL
Clouds: sky clear below 12,000 feet AGL
Weather: automated observation with no human augmentation;
there may or may not be significant weather present at this time

METAR text: KBJC 161030Z AUTO 23005KT 10SM CLR 11/05 A3007 RMK AO2
Conditions at: KBJC (BROOMFIELD/JEFFC, CO, US) observed 1030 UTC 16 June 2019
Temperature: 11.0°C (52°F)
Dewpoint: 5.0°C (41°F) [RH = 66%]
Pressure (altimeter): 30.07 inches Hg (1018.4 mb)
Winds: from the SW (230 degrees) at 6 MPH (5 knots; 2.6 m/s)
Visibility: 10 or more miles (16+ km)
Ceiling: at least 12,000 feet AGL
Clouds: sky clear below 12,000 feet AGL
Weather: automated observation with no human augmentation;
there may or may not be significant weather present at this time

METAR text: KBJC 161012Z AUTO 23003KT 10SM CLR 12/06 A3006 RMK AO2
Conditions at: KBJC (BROOMFIELD/JEFFC, CO, US) observed 1012 UTC 16 June 2019
Temperature: 12.0°C (54°F)
Dewpoint: 6.0°C (43°F) [RH = 67%]
Pressure (altimeter): 30.06 inches Hg (1018.0 mb)
Winds: from the SW (230 degrees) at 3 MPH (3 knots; 1.5 m/s)
Visibility: 10 or more miles (16+ km)
Ceiling: at least 12,000 feet AGL
Clouds: sky clear below 12,000 feet AGL
Weather: automated observation with no human augmentation;
there may or may not be significant weather present at this time

METAR text: KBJC 160954Z AUTO 22004KT 10SM CLR 11/06 A3005 RMK AO2
Conditions at: KBJC (BROOMFIELD/JEFFC, CO, US) observed 0954 UTC 16 June 2019
Temperature: 11.0°C (52°F)
Dewpoint: 6.0°C (43°F) [RH = 71%]
Pressure (altimeter): 30.05 inches Hg (1017.7 mb)
Winds: from the SW (220 degrees) at 5 MPH (4 knots; 2.1 m/s)
Visibility: 10 or more miles (16+ km)
Ceiling: at least 12,000 feet AGL
Clouds: sky clear below 12,000 feet AGL
Weather: automated observation with no human augmentation;
there may or may not be significant weather present at this time

METAR text: KBJC 160936Z AUTO 00000KT 10SM CLR 11/07 A3005 RMK AO2
Conditions at: KBJC (BROOMFIELD/JEFFC, CO, US) observed 0936 UTC 16 June 2019
Temperature: 11.0°C (52°F)
Dewpoint: 7.0°C (45°F) [RH = 76%]
Pressure (altimeter): 30.05 inches Hg (1017.7 mb)
Winds: calm
Visibility: 10 or more miles (16+ km)
Ceiling: at least 12,000 feet AGL
Clouds: sky clear below 12,000 feet AGL
Weather: automated observation with no human augmentation;
there may or may not be significant weather present at this time

METAR text: KBJC 160930Z AUTO 22003KT 10SM CLR 11/07 A3005 RMK AO2
Conditions at: KBJC (BROOMFIELD/JEFFC, CO, US) observed 0930 UTC 16 June 2019
Temperature: 11.0°C (52°F)
Dewpoint: 7.0°C (45°F) [RH = 76%]
Pressure (altimeter): 30.05 inches Hg (1017.7 mb)
Winds: from the SW (220 degrees) at 3 MPH (3 knots; 1.5 m/s)
Visibility: 10 or more miles (16+ km)
Ceiling: at least 12,000 feet AGL
Clouds: sky clear below 12,000 feet AGL
Weather: automated observation with no human augmentation;
there may or may not be significant weather present at this time

METAR text: KBJC 160912Z AUTO 22003KT 10SM CLR 11/06 A3004 RMK AO2
Conditions at: KBJC (BROOMFIELD/JEFFC, CO, US) observed 0912 UTC 16 June 2019
Temperature: 11.0°C (52°F)
Dewpoint: 6.0°C (43°F) [RH = 71%]
Pressure (altimeter): 30.04 inches Hg (1017.4 mb)
Winds: from the SW (220 degrees) at 3 MPH (3 knots; 1.5 m/s)
Visibility: 10 or more miles (16+ km)
Ceiling: at least 12,000 feet AGL
Clouds: sky clear below 12,000 feet AGL
Weather: automated observation with no human augmentation;
there may or may not be significant weather present at this time

METAR text: KBJC 160854Z AUTO 00000KT 10SM CLR 12/06 A3004 RMK AO2
Conditions at: KBJC (BROOMFIELD/JEFFC, CO, US) observed 0854 UTC 16 June 2019
Temperature: 12.0°C (54°F)
Dewpoint: 6.0°C (43°F) [RH = 67%]
Pressure (altimeter): 30.04 inches Hg (1017.4 mb)
Winds: calm
Visibility: 10 or more miles (16+ km)
Ceiling: at least 12,000 feet AGL
Clouds: sky clear below 12,000 feet AGL
Weather: automated observation with no human augmentation;
there may or may not be significant weather present at this time

METAR text: KBJC 160836Z AUTO 25003KT 10SM CLR 12/06 A3004 RMK AO2
Conditions at: KBJC (BROOMFIELD/JEFFC, CO, US) observed 0836 UTC 16 June 2019
Temperature: 12.0°C (54°F)
Dewpoint: 6.0°C (43°F) [RH = 67%]
Pressure (altimeter): 30.04 inches Hg (1017.4 mb)
Winds: from the WSW (250 degrees) at 3 MPH (3 knots; 1.5 m/s)
Visibility: 10 or more miles (16+ km)
Ceiling: at least 12,000 feet AGL
Clouds: sky clear below 12,000 feet AGL
Weather: automated observation with no human augmentation;
there may or may not be significant weather present at this time

METAR text: KBJC 160830Z AUTO 26004KT 10SM CLR 12/06 A3004 RMK AO2 LTG DSNT N
Conditions at: KBJC (BROOMFIELD/JEFFC, CO, US) observed 0830 UTC 16 June 2019
Temperature: 12.0°C (54°F)
Dewpoint: 6.0°C (43°F) [RH = 67%]
Pressure (altimeter): 30.04 inches Hg (1017.4 mb)
Winds: from the W (260 degrees) at 5 MPH (4 knots; 2.1 m/s)
Visibility: 10 or more miles (16+ km)
Ceiling: at least 12,000 feet AGL
Clouds: sky clear below 12,000 feet AGL
Weather: automated observation with no human augmentation;
there may or may not be significant weather present at this time

METAR text: KBJC 160812Z AUTO 00000KT 10SM CLR 13/07 A3006 RMK AO2 LTG DSNT N
Conditions at: KBJC (BROOMFIELD/JEFFC, CO, US) observed 0812 UTC 16 June 2019
Temperature: 13.0°C (55°F)
Dewpoint: 7.0°C (45°F) [RH = 67%]
Pressure (altimeter): 30.06 inches Hg (1018.0 mb)
Winds: calm
Visibility: 10 or more miles (16+ km)
Ceiling: at least 12,000 feet AGL
Clouds: sky clear below 12,000 feet AGL
Weather: automated observation with no human augmentation;
there may or may not be significant weather present at this time

METAR text: KBJC 160754Z AUTO 00000KT 10SM CLR 12/07 A3007 RMK AO2
Conditions at: KBJC (BROOMFIELD/JEFFC, CO, US) observed 0754 UTC 16 June 2019
Temperature: 12.0°C (54°F)
Dewpoint: 7.0°C (45°F) [RH = 71%]
Pressure (altimeter): 30.07 inches Hg (1018.4 mb)
Winds: calm
Visibility: 10 or more miles (16+ km)
Ceiling: at least 12,000 feet AGL
Clouds: sky clear below 12,000 feet AGL
Weather: automated observation with no human augmentation;
there may or may not be significant weather present at this time

METAR text: KBJC 160736Z AUTO 29003KT 10SM CLR 13/06 A3006 RMK AO2
Conditions at: KBJC (BROOMFIELD/JEFFC, CO, US) observed 0736 UTC 16 June 2019
Temperature: 13.0°C (55°F)
Dewpoint: 6.0°C (43°F) [RH = 62%]
Pressure (altimeter): 30.06 inches Hg (1018.0 mb)
Winds: from the WNW (290 degrees) at 3 MPH (3 knots; 1.5 m/s)
Visibility: 10 or more miles (16+ km)
Ceiling: at least 12,000 feet AGL
Clouds: sky clear below 12,000 feet AGL
Weather: automated observation with no human augmentation;
there may or may not be significant weather present at this time

METAR text: KBJC 160730Z AUTO 29004KT 10SM CLR 14/07 A3006 RMK AO2
Conditions at: KBJC (BROOMFIELD/JEFFC, CO, US) observed 0730 UTC 16 June 2019
Temperature: 14.0°C (57°F)
Dewpoint: 7.0°C (45°F) [RH = 63%]
Pressure (altimeter): 30.06 inches Hg (1018.0 mb)
Winds: from the WNW (290 degrees) at 5 MPH (4 knots; 2.1 m/s)
Visibility: 10 or more miles (16+ km)
Ceiling: at least 12,000 feet AGL
Clouds: sky clear below 12,000 feet AGL
Weather: automated observation with no human augmentation;
there may or may not be significant weather present at this time

METAR text: KBJC 160712Z AUTO 00000KT 10SM CLR 13/07 A3008 RMK AO2
Conditions at: KBJC (BROOMFIELD/JEFFC, CO, US) observed 0712 UTC 16 June 2019
Temperature: 13.0°C (55°F)
Dewpoint: 7.0°C (45°F) [RH = 67%]
Pressure (altimeter): 30.08 inches Hg (1018.7 mb)
Winds: calm
Visibility: 10 or more miles (16+ km)
Ceiling: at least 12,000 feet AGL
Clouds: sky clear below 12,000 feet AGL
Weather: automated observation with no human augmentation;
there may or may not be significant weather present at this time

METAR text: KBJC 160653Z AUTO 27005KT 10SM CLR 13/07 A3009 RMK AO2
Conditions at: KBJC (BROOMFIELD/JEFFC, CO, US) observed 0653 UTC 16 June 2019
Temperature: 13.0°C (55°F)
Dewpoint: 7.0°C (45°F) [RH = 67%]
Pressure (altimeter): 30.09 inches Hg (1019.0 mb)
Winds: from the W (270 degrees) at 6 MPH (5 knots; 2.6 m/s)
Visibility: 10 or more miles (16+ km)
Ceiling: at least 12,000 feet AGL
Clouds: sky clear below 12,000 feet AGL
Weather: automated observation with no human augmentation;
there may or may not be significant weather present at this time

METAR text: KBJC 160636Z AUTO 00000KT 10SM CLR 13/07 A3009 RMK AO2
Conditions at: KBJC (BROOMFIELD/JEFFC, CO, US) observed 0636 UTC 16 June 2019
Temperature: 13.0°C (55°F)
Dewpoint: 7.0°C (45°F) [RH = 67%]
Pressure (altimeter): 30.09 inches Hg (1019.0 mb)
Winds: calm
Visibility: 10 or more miles (16+ km)
Ceiling: at least 12,000 feet AGL
Clouds: sky clear below 12,000 feet AGL
Weather: automated observation with no human augmentation;
there may or may not be significant weather present at this time

METAR text: KBJC 160630Z AUTO 00000KT 10SM CLR 13/07 A3009 RMK AO2
Conditions at: KBJC (BROOMFIELD/JEFFC, CO, US) observed 0630 UTC 16 June 2019
Temperature: 13.0°C (55°F)
Dewpoint: 7.0°C (45°F) [RH = 67%]
Pressure (altimeter): 30.09 inches Hg (1019.0 mb)
Winds: calm
Visibility: 10 or more miles (16+ km)
Ceiling: at least 12,000 feet AGL
Clouds: sky clear below 12,000 feet AGL
Weather: automated observation with no human augmentation;
there may or may not be significant weather present at this time

METAR text: KBJC 160612Z AUTO 00000KT 10SM CLR 13/08 A3010 RMK AO2
Conditions at: KBJC (BROOMFIELD/JEFFC, CO, US) observed 0612 UTC 16 June 2019
Temperature: 13.0°C (55°F)
Dewpoint: 8.0°C (46°F) [RH = 72%]
Pressure (altimeter): 30.10 inches Hg (1019.4 mb)
Winds: calm
Visibility: 10 or more miles (16+ km)
Ceiling: at least 12,000 feet AGL
Clouds: sky clear below 12,000 feet AGL
Weather: automated observation with no human augmentation;
there may or may not be significant weather present at this time

METAR text: KBJC 160554Z AUTO 25007KT 10SM CLR 13/08 A3010 RMK AO2
Conditions at: KBJC (BROOMFIELD/JEFFC, CO, US) observed 0554 UTC 16 June 2019
Temperature: 13.0°C (55°F)
Dewpoint: 8.0°C (46°F) [RH = 72%]
Pressure (altimeter): 30.10 inches Hg (1019.4 mb)
Winds: from the WSW (250 degrees) at 8 MPH (7 knots; 3.6 m/s)
Visibility: 10 or more miles (16+ km)
Ceiling: at least 12,000 feet AGL
Clouds: sky clear below 12,000 feet AGL
Weather: automated observation with no human augmentation;
there may or may not be significant weather present at this time

METAR text: KBJC 160536Z AUTO 27007KT 10SM CLR 13/09 A3010 RMK AO2
Conditions at: KBJC (BROOMFIELD/JEFFC, CO, US) observed 0536 UTC 16 June 2019
Temperature: 13.0°C (55°F)
Dewpoint: 9.0°C (48°F) [RH = 77%]
Pressure (altimeter): 30.10 inches Hg (1019.4 mb)
Winds: from the W (270 degrees) at 8 MPH (7 knots; 3.6 m/s)
Visibility: 10 or more miles (16+ km)
Ceiling: at least 12,000 feet AGL
Clouds: sky clear below 12,000 feet AGL
Weather: automated observation with no human augmentation;
there may or may not be significant weather present at this time

METAR text: KBJC 160530Z AUTO 26007KT 10SM CLR 13/09 A3010 RMK AO2
Conditions at: KBJC (BROOMFIELD/JEFFC, CO, US) observed 0530 UTC 16 June 2019
Temperature: 13.0°C (55°F)
Dewpoint: 9.0°C (48°F) [RH = 77%]
Pressure (altimeter): 30.10 inches Hg (1019.4 mb)
Winds: from the W (260 degrees) at 8 MPH (7 knots; 3.6 m/s)
Visibility: 10 or more miles (16+ km)
Ceiling: at least 12,000 feet AGL
Clouds: sky clear below 12,000 feet AGL
Weather: automated observation with no human augmentation;
there may or may not be significant weather present at this time

METAR text: KBJC 160512Z AUTO 28006KT 10SM CLR 13/08 A3012 RMK AO2
Conditions at: KBJC (BROOMFIELD/JEFFC, CO, US) observed 0512 UTC 16 June 2019
Temperature: 13.0°C (55°F)
Dewpoint: 8.0°C (46°F) [RH = 72%]
Pressure (altimeter): 30.12 inches Hg (1020.1 mb)
Winds: from the W (280 degrees) at 7 MPH (6 knots; 3.1 m/s)
Visibility: 10 or more miles (16+ km)
Ceiling: at least 12,000 feet AGL
Clouds: sky clear below 12,000 feet AGL
Weather: automated observation with no human augmentation;
there may or may not be significant weather present at this time

METAR text: KBJC 160453Z AUTO 32005KT 10SM CLR 16/08 A3012 RMK AO2
Conditions at: KBJC (BROOMFIELD/JEFFC, CO, US) observed 0453 UTC 16 June 2019
Temperature: 16.0°C (61°F)
Dewpoint: 8.0°C (46°F) [RH = 59%]
Pressure (altimeter): 30.12 inches Hg (1020.1 mb)
Winds: from the NW (320 degrees) at 6 MPH (5 knots; 2.6 m/s)
Visibility: 10 or more miles (16+ km)
Ceiling: at least 12,000 feet AGL
Clouds: sky clear below 12,000 feet AGL
Weather: automated observation with no human augmentation;
there may or may not be significant weather present at this time

METAR text: KBJC 160436Z AUTO 36007KT 10SM CLR 16/08 A3013 RMK AO2
Conditions at: KBJC (BROOMFIELD/JEFFC, CO, US) observed 0436 UTC 16 June 2019
Temperature: 16.0°C (61°F)
Dewpoint: 8.0°C (46°F) [RH = 59%]
Pressure (altimeter): 30.13 inches Hg (1020.4 mb)
Winds: from the N (360 degrees) at 8 MPH (7 knots; 3.6 m/s)
Visibility: 10 or more miles (16+ km)
Ceiling: at least 12,000 feet AGL
Clouds: sky clear below 12,000 feet AGL
Weather: automated observation with no human augmentation;
there may or may not be significant weather present at this time

METAR text: KBJC 160430Z AUTO 34008KT 10SM CLR 16/08 A3013 RMK AO2 LTG DSNT E
Conditions at: KBJC (BROOMFIELD/JEFFC, CO, US) observed 0430 UTC 16 June 2019
Temperature: 16.0°C (61°F)
Dewpoint: 8.0°C (46°F) [RH = 59%]
Pressure (altimeter): 30.13 inches Hg (1020.4 mb)
Winds: from the NNW (340 degrees) at 9 MPH (8 knots; 4.1 m/s)
Visibility: 10 or more miles (16+ km)
Ceiling: at least 12,000 feet AGL
Clouds: sky clear below 12,000 feet AGL
Weather: automated observation with no human augmentation;
there may or may not be significant weather present at this time

METAR text: KBJC 160412Z AUTO 02006KT 10SM SCT090 16/08 A3013 RMK AO2
Conditions at: KBJC (BROOMFIELD/JEFFC, CO, US) observed 0412 UTC 16 June 2019
Temperature: 16.0°C (61°F)
Dewpoint: 8.0°C (46°F) [RH = 59%]
Pressure (altimeter): 30.13 inches Hg (1020.4 mb)
Winds: from the NNE (20 degrees) at 7 MPH (6 knots; 3.1 m/s)
Visibility: 10 or more miles (16+ km)
Ceiling: at least 12,000 feet AGL
Clouds: scattered clouds at 9000 feet AGL
Weather: automated observation with no human augmentation;
there may or may not be significant weather present at this time

METAR text: KBJC 160347Z 00000KT 40SM SCT085 BKN140 19/07 A3011 RMK LTGCG DNST N
Conditions at: KBJC (BROOMFIELD/JEFFC, CO, US) observed 0347 UTC 16 June 2019
Temperature: 19.0°C (66°F)
Dewpoint: 7.0°C (45°F) [RH = 46%]
Pressure (altimeter): 30.11 inches Hg (1019.7 mb)
Winds: calm
Visibility: 40 miles (64 km)
Ceiling: 14000 feet AGL
Clouds: scattered clouds at 8500 feet AGL
broken clouds at 14000 feet AGL
Weather: no significant weather observed at this time

METAR text: KBJC 160247Z 12004KT 40SM SCT085 BKN140 19/09 A3008 RMK LTGCG DNST N
Conditions at: KBJC (BROOMFIELD/JEFFC, CO, US) observed 0247 UTC 16 June 2019
Temperature: 19.0°C (66°F)
Dewpoint: 9.0°C (48°F) [RH = 52%]
Pressure (altimeter): 30.08 inches Hg (1018.7 mb)
Winds: from the ESE (120 degrees) at 5 MPH (4 knots; 2.1 m/s)
Visibility: 40 miles (64 km)
Ceiling: 14000 feet AGL
Clouds: scattered clouds at 8500 feet AGL
broken clouds at 14000 feet AGL
Weather: no significant weather observed at this time

METAR text: KBJC 160145Z 04007KT 40SM FEW060 SCT085 BKN140 22/08 A3008 RMK VIS LWR NE VIRGA ALQDS CB DSNT N-E
Conditions at: KBJC (BROOMFIELD/JEFFC, CO, US) observed 0145 UTC 16 June 2019
Temperature: 22.0°C (72°F)
Dewpoint: 8.0°C (46°F) [RH = 41%]
Pressure (altimeter): 30.08 inches Hg (1018.7 mb)
Winds: from the NE (40 degrees) at 8 MPH (7 knots; 3.6 m/s)
Visibility: 40 miles (64 km)
Ceiling: 14000 feet AGL
Clouds: few clouds at 6000 feet AGL
scattered clouds at 8500 feet AGL
broken clouds at 14000 feet AGL
Weather: no significant weather observed at this time

METAR text: KBJC 160052Z 17006KT 40SM FEW060 SCT085 BKN140 20/07 A3006 RMK VIS LWR NE TSE15 VIRGA ALQDS CB DSNT N-E
Conditions at: KBJC (BROOMFIELD/JEFFC, CO, US) observed 0052 UTC 16 June 2019
Temperature: 20.0°C (68°F)
Dewpoint: 7.0°C (45°F) [RH = 43%]
Pressure (altimeter): 30.06 inches Hg (1018.0 mb)
Winds: from the S (170 degrees) at 7 MPH (6 knots; 3.1 m/s)
Visibility: 40 miles (64 km)
Ceiling: 14000 feet AGL
Clouds: few clouds at 6000 feet AGL
scattered clouds at 8500 feet AGL
broken clouds at 14000 feet AGL
Weather: no significant weather observed at this time

METAR text: KBJC 160015Z 11007KT 25SM VCSH FEW060 BKN075 BKN085 20/06 A3008 RMK TSE15 TS DSNT NE MOV E VIRGA SW-NW
Conditions at: KBJC (BROOMFIELD/JEFFC, CO, US) observed 0015 UTC 16 June 2019
Temperature: 20.0°C (68°F)
Dewpoint: 6.0°C (43°F) [RH = 40%]
Pressure (altimeter): 30.08 inches Hg (1018.7 mb)
Winds: from the ESE (110 degrees) at 8 MPH (7 knots; 3.6 m/s)
Visibility: 25 miles (40 km)
Ceiling: 7500 feet AGL
Clouds: few clouds at 6000 feet AGL
broken clouds at 7500 feet AGL
broken clouds at 8500 feet AGL
Weather: VCSH  (showers in vicinity)

METAR text: KBJC 152348Z 04013G20KT 20SM -TSRA FEW060 SCT070CB BKN085 22/07 A3008 RMK TSB2245 TS NE MOV LTL CB W-E
Conditions at: KBJC (BROOMFIELD/JEFFC, CO, US) observed 2348 UTC 15 June 2019
Temperature: 22.0°C (72°F)
Dewpoint: 7.0°C (45°F) [RH = 38%]
Pressure (altimeter): 30.08 inches Hg (1018.7 mb)
Winds: from the NE (40 degrees) at 15 MPH (13 knots; 6.7 m/s)
gusting to 23 MPH (20 knots; 10.3 m/s)
Visibility: 20 miles (32 km)
Ceiling: 8500 feet AGL
Clouds: few clouds at 6000 feet AGL
scattered clouds at 7000 feet AGL
broken clouds at 8500 feet AGL
Weather: -TSRA  (light rain associated with thunderstorm(s))

METAR text: KBJC 152343Z 05015G21KT 20SM -TSRA FEW050 SCT070CB BKN085 22/05 A3008 RMK TS NE MOV E CB W-E
Conditions at: KBJC (BROOMFIELD/JEFFC, CO, US) observed 2343 UTC 15 June 2019
Temperature: 22.0°C (72°F)
Dewpoint: 5.0°C (41°F) [RH = 33%]
Pressure (altimeter): 30.08 inches Hg (1018.7 mb)
Winds: from the NE (50 degrees) at 17 MPH (15 knots; 7.7 m/s)
gusting to 24 MPH (21 knots; 10.8 m/s)
Visibility: 20 miles (32 km)
Ceiling: 8500 feet AGL
Clouds: few clouds at 5000 feet AGL
scattered clouds at 7000 feet AGL
broken clouds at 8500 feet AGL
Weather: -TSRA  (light rain associated with thunderstorm(s))

METAR text: KBJC 152317Z 19007KT 10SM TS VCSH SCT070 BKN090 24/04 A3006 RMK LTGCG N-NE TSB45 TS N MOV LTL
Conditions at: KBJC (BROOMFIELD/JEFFC, CO, US) observed 2317 UTC 15 June 2019
Temperature: 24.0°C (75°F)
Dewpoint: 4.0°C (39°F) [RH = 27%]
Pressure (altimeter): 30.06 inches Hg (1018.0 mb)
Winds: from the S (190 degrees) at 8 MPH (7 knots; 3.6 m/s)
Visibility: 10 or more miles (16+ km)
Ceiling: 9000 feet AGL
Clouds: scattered clouds at 7000 feet AGL
broken clouds at 9000 feet AGL
Weather: TS VCSH  (thunderstorm, showers in vicinity)

METAR text: KBJC 152245Z 18010KT 10SM TS VCSH SCT070 BKN100 25/04 A3006 RMK TSB45 TS N MOV NE
Conditions at: KBJC (BROOMFIELD/JEFFC, CO, US) observed 2245 UTC 15 June 2019
Temperature: 25.0°C (77°F)
Dewpoint: 4.0°C (39°F) [RH = 26%]
Pressure (altimeter): 30.06 inches Hg (1018.0 mb)
Winds: from the S (180 degrees) at 12 MPH (10 knots; 5.1 m/s)
Visibility: 10 or more miles (16+ km)
Ceiling: 10000 feet AGL
Clouds: scattered clouds at 7000 feet AGL
broken clouds at 10000 feet AGL
Weather: TS VCSH  (thunderstorm, showers in vicinity)

METAR text: KBJC 152147Z 21010G15KT 20SM VCSH SCT070 BKN100 26/05 A3007
Conditions at: KBJC (BROOMFIELD/JEFFC, CO, US) observed 2147 UTC 15 June 2019
Temperature: 26.0°C (79°F)
Dewpoint: 5.0°C (41°F) [RH = 26%]
Pressure (altimeter): 30.07 inches Hg (1018.4 mb)
Winds: from the SSW (210 degrees) at 12 MPH (10 knots; 5.1 m/s)
gusting to 17 MPH (15 knots; 7.7 m/s)
Visibility: 20 miles (32 km)
Ceiling: 10000 feet AGL
Clouds: scattered clouds at 7000 feet AGL
broken clouds at 10000 feet AGL
Weather: VCSH  (showers in vicinity)

METAR text: KBJC 152045Z 20009KT 20SM VCSH SCT070 BKN100 23/05 A3008 RMK OCNL LTGCG DSNT SE VIRGA SE
Conditions at: KBJC (BROOMFIELD/JEFFC, CO, US) observed 2045 UTC 15 June 2019
Temperature: 23.0°C (73°F)
Dewpoint: 5.0°C (41°F) [RH = 31%]
Pressure (altimeter): 30.08 inches Hg (1018.7 mb)
Winds: from the SSW (200 degrees) at 10 MPH (9 knots; 4.6 m/s)
Visibility: 20 miles (32 km)
Ceiling: 10000 feet AGL
Clouds: scattered clouds at 7000 feet AGL
broken clouds at 10000 feet AGL
Weather: VCSH  (showers in vicinity)

METAR text: KBJC 151945Z 03005KT 30SM VCSH SCT070 BKN150 24/03 A3008
Conditions at: KBJC (BROOMFIELD/JEFFC, CO, US) observed 1945 UTC 15 June 2019
Temperature: 24.0°C (75°F)
Dewpoint: 3.0°C (37°F) [RH = 25%]
Pressure (altimeter): 30.08 inches Hg (1018.7 mb)
Winds: from the NNE (30 degrees) at 6 MPH (5 knots; 2.6 m/s)
Visibility: 30 miles (48 km)
Ceiling: 15000 feet AGL
Clouds: scattered clouds at 7000 feet AGL
broken clouds at 15000 feet AGL
Weather: VCSH  (showers in vicinity)

METAR text: KBJC 151856Z 29008KT 40SM VCSH SCT065 SCT090 BKN160 25/05 A3008
Conditions at: KBJC (BROOMFIELD/JEFFC, CO, US) observed 1856 UTC 15 June 2019
Temperature: 25.0°C (77°F)
Dewpoint: 5.0°C (41°F) [RH = 28%]
Pressure (altimeter): 30.08 inches Hg (1018.7 mb)
Winds: from the WNW (290 degrees) at 9 MPH (8 knots; 4.1 m/s)
Visibility: 40 miles (64 km)
Ceiling: 16000 feet AGL
Clouds: scattered clouds at 6500 feet AGL
scattered clouds at 9000 feet AGL
broken clouds at 16000 feet AGL
Weather: VCSH  (showers in vicinity)

METAR text: KBJC 151745Z 36006KT 10SM FEW060 SCT200 23/05 A3010
Conditions at: KBJC (BROOMFIELD/JEFFC, CO, US) observed 1745 UTC 15 June 2019
Temperature: 23.0°C (73°F)
Dewpoint: 5.0°C (41°F) [RH = 31%]
Pressure (altimeter): 30.10 inches Hg (1019.4 mb)
Winds: from the N (360 degrees) at 7 MPH (6 knots; 3.1 m/s)
Visibility: 10 or more miles (16+ km)
Ceiling: at least 12,000 feet AGL
Clouds: few clouds at 6000 feet AGL
scattered clouds at 20000 feet AGL
Weather: no significant weather observed at this time

METAR text: KBJC 151659Z 03008KT 30SM FEW080 SCT200 23/05 A3010
Conditions at: KBJC (BROOMFIELD/JEFFC, CO, US) observed 1659 UTC 15 June 2019
Temperature: 23.0°C (73°F)
Dewpoint: 5.0°C (41°F) [RH = 31%]
Pressure (altimeter): 30.10 inches Hg (1019.4 mb)
Winds: from the NNE (30 degrees) at 9 MPH (8 knots; 4.1 m/s)
Visibility: 30 miles (48 km)
Ceiling: at least 12,000 feet AGL
Clouds: few clouds at 8000 feet AGL
scattered clouds at 20000 feet AGL
Weather: no significant weather observed at this time

METAR text: KBJC 151545Z 02008G15KT 30SM FEW080 SCT200 22/05 A3010
Conditions at: KBJC (BROOMFIELD/JEFFC, CO, US) observed 1545 UTC 15 June 2019
Temperature: 22.0°C (72°F)
Dewpoint: 5.0°C (41°F) [RH = 33%]
Pressure (altimeter): 30.10 inches Hg (1019.4 mb)
Winds: from the NNE (20 degrees) at 9 MPH (8 knots; 4.1 m/s)
gusting to 17 MPH (15 knots; 7.7 m/s)
Visibility: 30 miles (48 km)
Ceiling: at least 12,000 feet AGL
Clouds: few clouds at 8000 feet AGL
scattered clouds at 20000 feet AGL
Weather: no significant weather observed at this time

METAR text: KBJC 151445Z VRB04KT 40SM FEW080 SCT200 20/06 A3009
Conditions at: KBJC (BROOMFIELD/JEFFC, CO, US) observed 1445 UTC 15 June 2019
Temperature: 20.0°C (68°F)
Dewpoint: 6.0°C (43°F) [RH = 40%]
Pressure (altimeter): 30.09 inches Hg (1019.0 mb)
Winds: variable direction winds at 5 MPH (4 knots; 2.1 m/s)
Visibility: 40 miles (64 km)
Ceiling: at least 12,000 feet AGL
Clouds: few clouds at 8000 feet AGL
scattered clouds at 20000 feet AGL
Weather: no significant weather observed at this time

METAR text: KBJC 151345Z 33007KT 30SM SCT200 18/07 A3008
Conditions at: KBJC (BROOMFIELD/JEFFC, CO, US) observed 1345 UTC 15 June 2019
Temperature: 18.0°C (64°F)
Dewpoint: 7.0°C (45°F) [RH = 49%]
Pressure (altimeter): 30.08 inches Hg (1018.7 mb)
Winds: from the NNW (330 degrees) at 8 MPH (7 knots; 3.6 m/s)
Visibility: 30 miles (48 km)
Ceiling: at least 12,000 feet AGL
Clouds: scattered clouds at 20000 feet AGL
Weather: no significant weather observed at this time

METAR text: KBJC 151245Z 35004KT 30SM SCT200 16/07 A3005
Conditions at: KBJC (BROOMFIELD/JEFFC, CO, US) observed 1245 UTC 15 June 2019
Temperature: 16.0°C (61°F)
Dewpoint: 7.0°C (45°F) [RH = 55%]
Pressure (altimeter): 30.05 inches Hg (1017.7 mb)
Winds: from the N (350 degrees) at 5 MPH (4 knots; 2.1 m/s)
Visibility: 30 miles (48 km)
Ceiling: at least 12,000 feet AGL
Clouds: scattered clouds at 20000 feet AGL
Weather: no significant weather observed at this time

METAR text: KBJC 151155Z 18003KT 10SM SCT220 13/07 A3004
Conditions at: KBJC (BROOMFIELD/JEFFC, CO, US) observed 1155 UTC 15 June 2019
Temperature: 13.0°C (55°F)
Dewpoint: 7.0°C (45°F) [RH = 67%]
Pressure (altimeter): 30.04 inches Hg (1017.4 mb)
Winds: from the S (180 degrees) at 3 MPH (3 knots; 1.5 m/s)
Visibility: 10 or more miles (16+ km)
Ceiling: at least 12,000 feet AGL
Clouds: scattered clouds at 22000 feet AGL
Weather: no significant weather observed at this time

METAR text: KBJC 151154Z AUTO 21003KT 10SM SCT100 13/06 A3004 RMK AO2
Conditions at: KBJC (BROOMFIELD/JEFFC, CO, US) observed 1154 UTC 15 June 2019
Temperature: 13.0°C (55°F)
Dewpoint: 6.0°C (43°F) [RH = 62%]
Pressure (altimeter): 30.04 inches Hg (1017.4 mb)
Winds: from the SSW (210 degrees) at 3 MPH (3 knots; 1.5 m/s)
Visibility: 10 or more miles (16+ km)
Ceiling: at least 12,000 feet AGL
Clouds: scattered clouds at 10000 feet AGL
Weather: automated observation with no human augmentation;
there may or may not be significant weather present at this time

METAR text: KBJC 151136Z AUTO 28003KT 10SM CLR 15/05 A3003 RMK AO2
Conditions at: KBJC (BROOMFIELD/JEFFC, CO, US) observed 1136 UTC 15 June 2019
Temperature: 15.0°C (59°F)
Dewpoint: 5.0°C (41°F) [RH = 51%]
Pressure (altimeter): 30.03 inches Hg (1017.0 mb)
Winds: from the W (280 degrees) at 3 MPH (3 knots; 1.5 m/s)
Visibility: 10 or more miles (16+ km)
Ceiling: at least 12,000 feet AGL
Clouds: sky clear below 12,000 feet AGL
Weather: automated observation with no human augmentation;
there may or may not be significant weather present at this time

METAR text: KBJC 151130Z AUTO 28003KT 10SM CLR 14/05 A3003 RMK AO2
Conditions at: KBJC (BROOMFIELD/JEFFC, CO, US) observed 1130 UTC 15 June 2019
Temperature: 14.0°C (57°F)
Dewpoint: 5.0°C (41°F) [RH = 55%]
Pressure (altimeter): 30.03 inches Hg (1017.0 mb)
Winds: from the W (280 degrees) at 3 MPH (3 knots; 1.5 m/s)
Visibility: 10 or more miles (16+ km)
Ceiling: at least 12,000 feet AGL
Clouds: sky clear below 12,000 feet AGL
Weather: automated observation with no human augmentation;
there may or may not be significant weather present at this time

METAR text: KBJC 151112Z AUTO 26003KT 10SM CLR 15/05 A3002 RMK AO2
Conditions at: KBJC (BROOMFIELD/JEFFC, CO, US) observed 1112 UTC 15 June 2019
Temperature: 15.0°C (59°F)
Dewpoint: 5.0°C (41°F) [RH = 51%]
Pressure (altimeter): 30.02 inches Hg (1016.7 mb)
Winds: from the W (260 degrees) at 3 MPH (3 knots; 1.5 m/s)
Visibility: 10 or more miles (16+ km)
Ceiling: at least 12,000 feet AGL
Clouds: sky clear below 12,000 feet AGL
Weather: automated observation with no human augmentation;
there may or may not be significant weather present at this time

METAR text: KBJC 151054Z AUTO 28003KT 10SM CLR 15/06 A3001 RMK AO2
Conditions at: KBJC (BROOMFIELD/JEFFC, CO, US) observed 1054 UTC 15 June 2019
Temperature: 15.0°C (59°F)
Dewpoint: 6.0°C (43°F) [RH = 55%]
Pressure (altimeter): 30.01 inches Hg (1016.3 mb)
Winds: from the W (280 degrees) at 3 MPH (3 knots; 1.5 m/s)
Visibility: 10 or more miles (16+ km)
Ceiling: at least 12,000 feet AGL
Clouds: sky clear below 12,000 feet AGL
Weather: automated observation with no human augmentation;
there may or may not be significant weather present at this time

METAR text: KBJC 151036Z AUTO 21003KT 10SM CLR 16/06 A3001 RMK AO2
Conditions at: KBJC (BROOMFIELD/JEFFC, CO, US) observed 1036 UTC 15 June 2019
Temperature: 16.0°C (61°F)
Dewpoint: 6.0°C (43°F) [RH = 51%]
Pressure (altimeter): 30.01 inches Hg (1016.3 mb)
Winds: from the SSW (210 degrees) at 3 MPH (3 knots; 1.5 m/s)
Visibility: 10 or more miles (16+ km)
Ceiling: at least 12,000 feet AGL
Clouds: sky clear below 12,000 feet AGL
Weather: automated observation with no human augmentation;
there may or may not be significant weather present at this time

METAR text: KBJC 151030Z AUTO 22003KT 10SM CLR 16/06 A3001 RMK AO2
Conditions at: KBJC (BROOMFIELD/JEFFC, CO, US) observed 1030 UTC 15 June 2019
Temperature: 16.0°C (61°F)
Dewpoint: 6.0°C (43°F) [RH = 51%]
Pressure (altimeter): 30.01 inches Hg (1016.3 mb)
Winds: from the SW (220 degrees) at 3 MPH (3 knots; 1.5 m/s)
Visibility: 10 or more miles (16+ km)
Ceiling: at least 12,000 feet AGL
Clouds: sky clear below 12,000 feet AGL
Weather: automated observation with no human augmentation;
there may or may not be significant weather present at this time

METAR text: KBJC 151012Z AUTO 16003KT 10SM CLR 15/06 A3001 RMK AO2
Conditions at: KBJC (BROOMFIELD/JEFFC, CO, US) observed 1012 UTC 15 June 2019
Temperature: 15.0°C (59°F)
Dewpoint: 6.0°C (43°F) [RH = 55%]
Pressure (altimeter): 30.01 inches Hg (1016.3 mb)
Winds: from the SSE (160 degrees) at 3 MPH (3 knots; 1.5 m/s)
Visibility: 10 or more miles (16+ km)
Ceiling: at least 12,000 feet AGL
Clouds: sky clear below 12,000 feet AGL
Weather: automated observation with no human augmentation;
there may or may not be significant weather present at this time

METAR text: KBJC 150954Z AUTO 00000KT 10SM CLR 16/05 A3000 RMK AO2
Conditions at: KBJC (BROOMFIELD/JEFFC, CO, US) observed 0954 UTC 15 June 2019
Temperature: 16.0°C (61°F)
Dewpoint: 5.0°C (41°F) [RH = 48%]
Pressure (altimeter): 30.00 inches Hg (1016.0 mb)
Winds: calm
Visibility: 10 or more miles (16+ km)
Ceiling: at least 12,000 feet AGL
Clouds: sky clear below 12,000 feet AGL
Weather: automated observation with no human augmentation;
there may or may not be significant weather present at this time

METAR text: KBJC 150936Z AUTO 21003KT 10SM CLR 16/06 A3000 RMK AO2
Conditions at: KBJC (BROOMFIELD/JEFFC, CO, US) observed 0936 UTC 15 June 2019
Temperature: 16.0°C (61°F)
Dewpoint: 6.0°C (43°F) [RH = 51%]
Pressure (altimeter): 30.00 inches Hg (1016.0 mb)
Winds: from the SSW (210 degrees) at 3 MPH (3 knots; 1.5 m/s)
Visibility: 10 or more miles (16+ km)
Ceiling: at least 12,000 feet AGL
Clouds: sky clear below 12,000 feet AGL
Weather: automated observation with no human augmentation;
there may or may not be significant weather present at this time

METAR text: KBJC 150930Z AUTO 20005KT 10SM CLR 16/06 A3000 RMK AO2
Conditions at: KBJC (BROOMFIELD/JEFFC, CO, US) observed 0930 UTC 15 June 2019
Temperature: 16.0°C (61°F)
Dewpoint: 6.0°C (43°F) [RH = 51%]
Pressure (altimeter): 30.00 inches Hg (1016.0 mb)
Winds: from the SSW (200 degrees) at 6 MPH (5 knots; 2.6 m/s)
Visibility: 10 or more miles (16+ km)
Ceiling: at least 12,000 feet AGL
Clouds: sky clear below 12,000 feet AGL
Weather: automated observation with no human augmentation;
there may or may not be significant weather present at this time

METAR text: KBJC 150912Z AUTO 23003KT 10SM CLR 17/05 A2999 RMK AO2
Conditions at: KBJC (BROOMFIELD/JEFFC, CO, US) observed 0912 UTC 15 June 2019
Temperature: 17.0°C (63°F)
Dewpoint: 5.0°C (41°F) [RH = 45%]
Pressure (altimeter): 29.99 inches Hg (1015.7 mb)
Winds: from the SW (230 degrees) at 3 MPH (3 knots; 1.5 m/s)
Visibility: 10 or more miles (16+ km)
Ceiling: at least 12,000 feet AGL
Clouds: sky clear below 12,000 feet AGL
Weather: automated observation with no human augmentation;
there may or may not be significant weather present at this time

METAR text: KBJC 150856Z AUTO 21003KT 10SM CLR 17/06 A2999 RMK AO2
Conditions at: KBJC (BROOMFIELD/JEFFC, CO, US) observed 0856 UTC 15 June 2019
Temperature: 17.0°C (63°F)
Dewpoint: 6.0°C (43°F) [RH = 48%]
Pressure (altimeter): 29.99 inches Hg (1015.7 mb)
Winds: from the SSW (210 degrees) at 3 MPH (3 knots; 1.5 m/s)
Visibility: 10 or more miles (16+ km)
Ceiling: at least 12,000 feet AGL
Clouds: sky clear below 12,000 feet AGL
Weather: automated observation with no human augmentation;
there may or may not be significant weather present at this time

METAR text: KBJC 150850Z AUTO 00000KT 10SM CLR 17/05 A2999 RMK AO2
Conditions at: KBJC (BROOMFIELD/JEFFC, CO, US) observed 0850 UTC 15 June 2019
Temperature: 17.0°C (63°F)
Dewpoint: 5.0°C (41°F) [RH = 45%]
Pressure (altimeter): 29.99 inches Hg (1015.7 mb)
Winds: calm
Visibility: 10 or more miles (16+ km)
Ceiling: at least 12,000 feet AGL
Clouds: sky clear below 12,000 feet AGL
Weather: automated observation with no human augmentation;
there may or may not be significant weather present at this time

METAR text: KBJC 150832Z AUTO 28006KT 10SM CLR 18/02 A2999 RMK AO2
Conditions at: KBJC (BROOMFIELD/JEFFC, CO, US) observed 0832 UTC 15 June 2019
Temperature: 18.0°C (64°F)
Dewpoint: 2.0°C (36°F) [RH = 34%]
Pressure (altimeter): 29.99 inches Hg (1015.7 mb)
Winds: from the W (280 degrees) at 7 MPH (6 knots; 3.1 m/s)
Visibility: 10 or more miles (16+ km)
Ceiling: at least 12,000 feet AGL
Clouds: sky clear below 12,000 feet AGL
Weather: automated observation with no human augmentation;
there may or may not be significant weather present at this time

METAR text: KBJC 150814Z AUTO 29005KT 10SM CLR 17/05 A2999 RMK AO2
Conditions at: KBJC (BROOMFIELD/JEFFC, CO, US) observed 0814 UTC 15 June 2019
Temperature: 17.0°C (63°F)
Dewpoint: 5.0°C (41°F) [RH = 45%]
Pressure (altimeter): 29.99 inches Hg (1015.7 mb)
Winds: from the WNW (290 degrees) at 6 MPH (5 knots; 2.6 m/s)
Visibility: 10 or more miles (16+ km)
Ceiling: at least 12,000 feet AGL
Clouds: sky clear below 12,000 feet AGL
Weather: automated observation with no human augmentation;
there may or may not be significant weather present at this time

METAR text: KBJC 150754Z AUTO 00000KT 10SM CLR 17/05 A2999 RMK AO2
Conditions at: KBJC (BROOMFIELD/JEFFC, CO, US) observed 0754 UTC 15 June 2019
Temperature: 17.0°C (63°F)
Dewpoint: 5.0°C (41°F) [RH = 45%]
Pressure (altimeter): 29.99 inches Hg (1015.7 mb)
Winds: calm
Visibility: 10 or more miles (16+ km)
Ceiling: at least 12,000 feet AGL
Clouds: sky clear below 12,000 feet AGL
Weather: automated observation with no human augmentation;
there may or may not be significant weather present at this time

METAR text: KBJC 150736Z AUTO 20004KT 10SM SCT120 17/06 A2999 RMK AO2
Conditions at: KBJC (BROOMFIELD/JEFFC, CO, US) observed 0736 UTC 15 June 2019
Temperature: 17.0°C (63°F)
Dewpoint: 6.0°C (43°F) [RH = 48%]
Pressure (altimeter): 29.99 inches Hg (1015.7 mb)
Winds: from the SSW (200 degrees) at 5 MPH (4 knots; 2.1 m/s)
Visibility: 10 or more miles (16+ km)
Ceiling: at least 12,000 feet AGL
Clouds: scattered clouds at 12000 feet AGL
Weather: automated observation with no human augmentation;
there may or may not be significant weather present at this time

METAR text: KBJC 150730Z AUTO 21004KT 10SM CLR 17/06 A2999 RMK AO2
Conditions at: KBJC (BROOMFIELD/JEFFC, CO, US) observed 0730 UTC 15 June 2019
Temperature: 17.0°C (63°F)
Dewpoint: 6.0°C (43°F) [RH = 48%]
Pressure (altimeter): 29.99 inches Hg (1015.7 mb)
Winds: from the SSW (210 degrees) at 5 MPH (4 knots; 2.1 m/s)
Visibility: 10 or more miles (16+ km)
Ceiling: at least 12,000 feet AGL
Clouds: sky clear below 12,000 feet AGL
Weather: automated observation with no human augmentation;
there may or may not be significant weather present at this time

METAR text: KBJC 150712Z AUTO 22004KT 10SM CLR 17/06 A3000 RMK AO2
Conditions at: KBJC (BROOMFIELD/JEFFC, CO, US) observed 0712 UTC 15 June 2019
Temperature: 17.0°C (63°F)
Dewpoint: 6.0°C (43°F) [RH = 48%]
Pressure (altimeter): 30.00 inches Hg (1016.0 mb)
Winds: from the SW (220 degrees) at 5 MPH (4 knots; 2.1 m/s)
Visibility: 10 or more miles (16+ km)
Ceiling: at least 12,000 feet AGL
Clouds: sky clear below 12,000 feet AGL
Weather: automated observation with no human augmentation;
there may or may not be significant weather present at this time

METAR text: KBJC 150653Z AUTO 24006KT 10SM CLR 17/06 A3001 RMK AO2
Conditions at: KBJC (BROOMFIELD/JEFFC, CO, US) observed 0653 UTC 15 June 2019
Temperature: 17.0°C (63°F)
Dewpoint: 6.0°C (43°F) [RH = 48%]
Pressure (altimeter): 30.01 inches Hg (1016.3 mb)
Winds: from the WSW (240 degrees) at 7 MPH (6 knots; 3.1 m/s)
Visibility: 10 or more miles (16+ km)
Ceiling: at least 12,000 feet AGL
Clouds: sky clear below 12,000 feet AGL
Weather: automated observation with no human augmentation;
there may or may not be significant weather present at this time

METAR text: KBJC 150636Z AUTO 23006KT 10SM CLR 18/06 A3001 RMK AO2
Conditions at: KBJC (BROOMFIELD/JEFFC, CO, US) observed 0636 UTC 15 June 2019
Temperature: 18.0°C (64°F)
Dewpoint: 6.0°C (43°F) [RH = 45%]
Pressure (altimeter): 30.01 inches Hg (1016.3 mb)
Winds: from the SW (230 degrees) at 7 MPH (6 knots; 3.1 m/s)
Visibility: 10 or more miles (16+ km)
Ceiling: at least 12,000 feet AGL
Clouds: sky clear below 12,000 feet AGL
Weather: automated observation with no human augmentation;
there may or may not be significant weather present at this time

METAR text: KBJC 150630Z AUTO 22008KT 10SM CLR 18/06 A3001 RMK AO2
Conditions at: KBJC (BROOMFIELD/JEFFC, CO, US) observed 0630 UTC 15 June 2019
Temperature: 18.0°C (64°F)
Dewpoint: 6.0°C (43°F) [RH = 45%]
Pressure (altimeter): 30.01 inches Hg (1016.3 mb)
Winds: from the SW (220 degrees) at 9 MPH (8 knots; 4.1 m/s)
Visibility: 10 or more miles (16+ km)
Ceiling: at least 12,000 feet AGL
Clouds: sky clear below 12,000 feet AGL
Weather: automated observation with no human augmentation;
there may or may not be significant weather present at this time

METAR text: KBJC 150612Z AUTO 21007KT 10SM CLR 17/06 A3001 RMK AO2
Conditions at: KBJC (BROOMFIELD/JEFFC, CO, US) observed 0612 UTC 15 June 2019
Temperature: 17.0°C (63°F)
Dewpoint: 6.0°C (43°F) [RH = 48%]
Pressure (altimeter): 30.01 inches Hg (1016.3 mb)
Winds: from the SSW (210 degrees) at 8 MPH (7 knots; 3.6 m/s)
Visibility: 10 or more miles (16+ km)
Ceiling: at least 12,000 feet AGL
Clouds: sky clear below 12,000 feet AGL
Weather: automated observation with no human augmentation;
there may or may not be significant weather present at this time

METAR text: KBJC 150554Z AUTO 24006KT 10SM CLR 17/07 A3001 RMK AO2
Conditions at: KBJC (BROOMFIELD/JEFFC, CO, US) observed 0554 UTC 15 June 2019
Temperature: 17.0°C (63°F)
Dewpoint: 7.0°C (45°F) [RH = 52%]
Pressure (altimeter): 30.01 inches Hg (1016.3 mb)
Winds: from the WSW (240 degrees) at 7 MPH (6 knots; 3.1 m/s)
Visibility: 10 or more miles (16+ km)
Ceiling: at least 12,000 feet AGL
Clouds: sky clear below 12,000 feet AGL
Weather: automated observation with no human augmentation;
there may or may not be significant weather present at this time

METAR text: KBJC 150536Z AUTO 23003KT 10SM CLR 17/06 A3001 RMK AO2
Conditions at: KBJC (BROOMFIELD/JEFFC, CO, US) observed 0536 UTC 15 June 2019
Temperature: 17.0°C (63°F)
Dewpoint: 6.0°C (43°F) [RH = 48%]
Pressure (altimeter): 30.01 inches Hg (1016.3 mb)
Winds: from the SW (230 degrees) at 3 MPH (3 knots; 1.5 m/s)
Visibility: 10 or more miles (16+ km)
Ceiling: at least 12,000 feet AGL
Clouds: sky clear below 12,000 feet AGL
Weather: automated observation with no human augmentation;
there may or may not be significant weather present at this time

METAR text: KBJC 150530Z AUTO 23003KT 10SM CLR 17/06 A3001 RMK AO2
Conditions at: KBJC (BROOMFIELD/JEFFC, CO, US) observed 0530 UTC 15 June 2019
Temperature: 17.0°C (63°F)
Dewpoint: 6.0°C (43°F) [RH = 48%]
Pressure (altimeter): 30.01 inches Hg (1016.3 mb)
Winds: from the SW (230 degrees) at 3 MPH (3 knots; 1.5 m/s)
Visibility: 10 or more miles (16+ km)
Ceiling: at least 12,000 feet AGL
Clouds: sky clear below 12,000 feet AGL
Weather: automated observation with no human augmentation;
there may or may not be significant weather present at this time

METAR text: KBJC 150512Z AUTO 20004KT 10SM CLR 18/05 A3001 RMK AO2
Conditions at: KBJC (BROOMFIELD/JEFFC, CO, US) observed 0512 UTC 15 June 2019
Temperature: 18.0°C (64°F)
Dewpoint: 5.0°C (41°F) [RH = 42%]
Pressure (altimeter): 30.01 inches Hg (1016.3 mb)
Winds: from the SSW (200 degrees) at 5 MPH (4 knots; 2.1 m/s)
Visibility: 10 or more miles (16+ km)
Ceiling: at least 12,000 feet AGL
Clouds: sky clear below 12,000 feet AGL
Weather: automated observation with no human augmentation;
there may or may not be significant weather present at this time

METAR text: KBJC 150454Z AUTO 26004KT 10SM CLR 18/06 A3000 RMK AO2
Conditions at: KBJC (BROOMFIELD/JEFFC, CO, US) observed 0454 UTC 15 June 2019
Temperature: 18.0°C (64°F)
Dewpoint: 6.0°C (43°F) [RH = 45%]
Pressure (altimeter): 30.00 inches Hg (1016.0 mb)
Winds: from the W (260 degrees) at 5 MPH (4 knots; 2.1 m/s)
Visibility: 10 or more miles (16+ km)
Ceiling: at least 12,000 feet AGL
Clouds: sky clear below 12,000 feet AGL
Weather: automated observation with no human augmentation;
there may or may not be significant weather present at this time

Forecast for: KBJC (BROOMFIELD/JEFFC, CO, US)
Text: KBJC 161128Z 1612/1712 28006KT P6SM SCT120 BKN220
Forecast period: 1200 to 1700 UTC 16 June 2019
Forecast type: FROM: standard forecast or significant change
Winds: from the W (280 degrees) at 7 MPH (6 knots; 3.1 m/s)
Visibility: 6 or more miles 10+ km)
Ceiling: 22000 feet AGL
Clouds: scattered clouds at 12000 feet AGL
broken clouds at 22000 feet AGL
Weather: no significant weather forecast for this period
Text: FM161700 08006KT P6SM SCT070 SCT120
Forecast period: 1700 to 2100 UTC 16 June 2019
Forecast type: FROM: standard forecast or significant change
Winds: from the E (80 degrees) at 7 MPH (6 knots; 3.1 m/s)
Visibility: 6 or more miles 10+ km)
Ceiling: at least 12,000 feet AGL
Clouds: scattered clouds at 7000 feet AGL
scattered clouds at 12000 feet AGL
Weather: no significant weather forecast for this period
Text: FM162100 29010KT P6SM VCTS SCT060CB BKN100
Forecast period: 2100 UTC 16 June 2019 to 0000 UTC 17 June 2019
Forecast type: FROM: standard forecast or significant change
Winds: from the WNW (290 degrees) at 12 MPH (10 knots; 5.1 m/s)
Visibility: 6 or more miles 10+ km)
Ceiling: 10000 feet AGL
Clouds: scattered clouds at 6000 feet AGL
broken clouds at 10000 feet AGL
Weather: VCTS  (thunderstorm in vicinity)
Text: PROB30 1621/1624 VRB15G25KT -TSRA BKN060CB
Forecast period: 2100 UTC 16 June 2019 to 0000 UTC 17 June 2019
Forecast type: PROBABLE: 30 percent likelihood of the following during this time
Winds: variable direction winds at 17 MPH (15 knots; 7.7 m/s)
gusting to 29 MPH (25 knots; 12.9 m/s)
Visibility: missing
Ceiling: 6000 feet AGL
Clouds: broken clouds at 6000 feet AGL
Weather: -TSRA  (light rain associated with thunderstorm(s))
Text: FM170000 33013G20KT P6SM VCTS BKN060CB BKN100
Forecast period: 0000 to 0200 UTC 17 June 2019
Forecast type: FROM: standard forecast or significant change
Winds: from the NNW (330 degrees) at 15 MPH (13 knots; 6.7 m/s)
gusting to 23 MPH (20 knots; 10.3 m/s)
Visibility: 6 or more miles 10+ km)
Ceiling: 6000 feet AGL
Clouds: broken clouds at 6000 feet AGL
broken clouds at 10000 feet AGL
Weather: VCTS  (thunderstorm in vicinity)
Text: TEMPO 1700/1702 VRB17G30KT -TSRA
Forecast period: 0000 to 0200 UTC 17 June 2019
Forecast type: TEMPORARY: The following changes expected for less than half the time period
Winds: variable direction winds at 20 MPH (17 knots; 8.7 m/s)
gusting to 34 MPH (30 knots; 15.4 m/s)
Visibility: missing
Ceiling: unknown
Clouds: missing
Weather: -TSRA  (light rain associated with thunderstorm(s))
Text: FM170200 20008KT P6SM SCT060 BKN100
Forecast period: 0200 to 0400 UTC 17 June 2019
Forecast type: FROM: standard forecast or significant change
Winds: from the SSW (200 degrees) at 9 MPH (8 knots; 4.1 m/s)
Visibility: 6 or more miles 10+ km)
Ceiling: 10000 feet AGL
Clouds: scattered clouds at 6000 feet AGL
broken clouds at 10000 feet AGL
Weather: no significant weather forecast for this period
Text: FM170400 32006KT P6SM SCT060 BKN100
Forecast period: 0400 to 0800 UTC 17 June 2019
Forecast type: FROM: standard forecast or significant change
Winds: from the NW (320 degrees) at 7 MPH (6 knots; 3.1 m/s)
Visibility: 6 or more miles 10+ km)
Ceiling: 10000 feet AGL
Clouds: scattered clouds at 6000 feet AGL
broken clouds at 10000 feet AGL
Weather: no significant weather forecast for this period
Text: FM170800 32006KT P6SM SCT120
Forecast period: 0800 to 1200 UTC 17 June 2019
Forecast type: FROM: standard forecast or significant change
Winds: from the NW (320 degrees) at 7 MPH (6 knots; 3.1 m/s)
Visibility: 6 or more miles 10+ km)
Ceiling: at least 12,000 feet AGL
Clouds: scattered clouds at 12000 feet AGL
Weather: no significant weather forecast for this period